createdAt,value
2022-10-21T00:01:05.836Z,100622.78
2022-10-21T00:03:34.110Z,100625.03
2022-10-21T00:06:02.494Z,100614.56
2022-10-21T00:08:32.294Z,100606.41
2022-10-21T00:11:03.300Z,100590.91
2022-10-21T00:13:33.269Z,100617.09
2022-10-21T00:16:04.616Z,100590.78
2022-10-21T00:18:35.039Z,100610.16
2022-10-21T00:21:07.943Z,100603.59
2022-10-21T00:23:37.851Z,100600.72
2022-10-21T00:26:07.231Z,100612.91
2022-10-21T00:28:36.006Z,100593.13
2022-10-21T00:31:07.164Z,100592.88
2022-10-21T00:33:35.760Z,100588.34
2022-10-21T00:36:06.069Z,100573.38
2022-10-21T00:38:37.205Z,100587.91
2022-10-21T00:41:05.523Z,100586.06
2022-10-21T00:43:33.702Z,100583.16
2022-10-21T00:46:05.272Z,100574.53
2022-10-21T00:48:37.626Z,100563.84
2022-10-21T00:51:09.562Z,100572.03
2022-10-21T00:53:43.806Z,100576.03
2022-10-21T00:56:18.092Z,100567.72
2022-10-21T00:58:48.521Z,100570.81
2022-10-21T01:01:20.639Z,100577.00
2022-10-21T01:03:50.505Z,100586.00
2022-10-21T01:06:23.308Z,100545.59
2022-10-21T01:08:54.673Z,100563.34
2022-10-21T01:11:24.802Z,100564.09
2022-10-21T01:14:33.542Z,100564.97
2022-10-21T01:17:26.542Z,100564.00
2022-10-21T01:20:29.301Z,100555.13
2022-10-21T01:24:04.034Z,100544.63
2022-10-21T01:27:11.123Z,100538.03
2022-10-21T01:30:08.503Z,100535.34
2022-10-21T01:32:52.938Z,100533.13
2022-10-21T01:35:24.087Z,100531.31
2022-10-21T01:38:04.473Z,100525.28
2022-10-21T01:40:40.460Z,100527.50
2022-10-21T01:43:17.894Z,100518.03
2022-10-21T01:45:51.320Z,100531.28
2022-10-21T01:48:24.478Z,100525.28
2022-10-21T01:50:58.157Z,100527.19
2022-10-21T01:53:33.764Z,100520.97
2022-10-21T01:56:05.006Z,100510.25
2022-10-21T01:58:36.273Z,100504.72
2022-10-21T02:01:07.590Z,100513.25
2022-10-21T02:03:42.087Z,100502.94
2022-10-21T02:06:10.438Z,100502.22
2022-10-21T02:08:38.829Z,100503.09
2022-10-21T02:11:10.923Z,100510.38
2022-10-21T02:13:46.494Z,100506.81
2022-10-21T02:16:19.160Z,100502.56
2022-10-21T02:18:48.909Z,100503.09
2022-10-21T02:21:21.419Z,100496.44
2022-10-21T02:23:54.551Z,100494.69
2022-10-21T02:26:23.759Z,100497.66
2022-10-21T02:28:56.155Z,100495.03
2022-10-21T02:31:47.517Z,100490.34
2022-10-21T02:34:27.450Z,100481.28
2022-10-21T02:37:05.129Z,100478.16
2022-10-21T02:39:38.204Z,100477.63
2022-10-21T02:42:11.794Z,100485.19
2022-10-21T02:44:40.228Z,100486.41
2022-10-21T02:47:08.648Z,100486.81
2022-10-21T02:49:38.427Z,100482.84
2022-10-21T02:52:07.088Z,100475.06
2022-10-21T02:54:35.243Z,100475.13
2022-10-21T02:57:03.468Z,100475.53
2022-10-21T02:59:31.664Z,100471.09
2022-10-21T03:01:59.880Z,100474.75
2022-10-21T03:04:28.079Z,100479.44
2022-10-21T03:06:57.660Z,100480.16
2022-10-21T03:09:25.923Z,100471.84
2022-10-21T03:11:54.155Z,100470.59
2022-10-21T03:14:22.375Z,100471.22
2022-10-21T03:16:50.592Z,100472.16
2022-10-21T03:19:18.834Z,100471.00
2022-10-21T03:21:47.124Z,100469.75
2022-10-21T03:24:27.816Z,100461.59
2022-10-21T03:26:57.340Z,100453.19
2022-10-21T03:29:25.603Z,100457.84
2022-10-21T03:31:54.238Z,100457.25
2022-10-21T03:34:22.598Z,100425.78
2022-10-21T03:36:50.905Z,100438.91
2022-10-21T03:39:20.530Z,100431.03
2022-10-21T03:41:48.855Z,100433.34
2022-10-21T03:44:17.103Z,100427.31
2022-10-21T03:46:45.389Z,100436.34
2022-10-21T03:49:19.994Z,100426.69
2022-10-21T03:51:49.804Z,100434.81
2022-10-21T03:54:20.216Z,100439.28
2022-10-21T03:56:48.823Z,100438.78
2022-10-21T03:59:17.059Z,100431.69
2022-10-21T04:01:45.511Z,100433.38
2022-10-21T04:04:13.836Z,100432.63
2022-10-21T04:06:42.176Z,100443.09
2022-10-21T04:09:10.475Z,100446.53
2022-10-21T04:11:40.030Z,100452.75
2022-10-21T04:14:11.588Z,100450.28
2022-10-21T04:16:42.943Z,100443.13
2022-10-21T04:19:18.294Z,100453.72
2022-10-21T04:21:47.650Z,100436.44
2022-10-21T04:24:15.867Z,100456.59
2022-10-21T04:26:45.639Z,100452.53
2022-10-21T04:29:13.871Z,100452.28
2022-10-21T04:31:42.093Z,100460.22
2022-10-21T04:34:10.420Z,100454.06
2022-10-21T04:36:38.672Z,100457.72
2022-10-21T04:39:06.920Z,100465.72
2022-10-21T04:41:35.232Z,100460.34
2022-10-21T04:44:06.325Z,100454.16
2022-10-21T04:46:34.695Z,100450.56
2022-10-21T04:49:02.875Z,100448.94
2022-10-21T04:54:00.193Z,100446.16
2022-10-21T04:56:28.464Z,100446.63
2022-10-21T04:58:56.740Z,100446.47
2022-10-21T05:01:26.409Z,100450.75
2022-10-21T05:03:54.731Z,100462.03
2022-10-21T05:06:22.976Z,100466.34
2022-10-21T05:08:51.329Z,100462.66
2022-10-21T05:11:19.579Z,100455.88
2022-10-21T05:13:47.822Z,100461.00
2022-10-21T05:16:16.195Z,100458.22
2022-10-21T05:18:45.777Z,100456.31
2022-10-21T05:21:14.282Z,100443.88
2022-10-21T05:23:42.981Z,100448.41
2022-10-21T05:26:11.445Z,100448.41
2022-10-21T05:28:39.652Z,100456.31
2022-10-21T05:31:07.949Z,100448.59
2022-10-21T05:33:36.408Z,100454.66
2022-10-21T05:36:08.631Z,100415.69
2022-10-21T05:38:37.208Z,100436.59
2022-10-21T05:41:05.780Z,100437.41
2022-10-21T05:43:34.142Z,100445.16
2022-10-21T05:46:02.374Z,100444.97
2022-10-21T05:48:31.050Z,100440.44
2022-10-21T05:50:59.245Z,100439.50
2022-10-21T05:53:28.809Z,100442.25
2022-10-21T05:55:58.153Z,100434.88
2022-10-21T05:58:27.150Z,100441.31
2022-10-21T06:00:55.841Z,100440.13
2022-10-21T06:03:25.295Z,100417.03
2022-10-21T06:05:53.531Z,100439.25
2022-10-21T06:08:21.698Z,100442.44
2022-10-21T06:10:51.498Z,100443.88
2022-10-21T06:13:19.699Z,100440.25
2022-10-21T06:15:48.845Z,100439.38
2022-10-21T06:18:19.374Z,100437.66
2022-10-21T06:20:47.622Z,100434.81
2022-10-21T06:23:16.424Z,100434.59
2022-10-21T06:25:45.086Z,100437.03
2022-10-21T06:28:14.746Z,100438.47
2022-10-21T06:30:42.969Z,100436.63
2022-10-21T06:33:11.226Z,100428.63
2022-10-21T06:35:39.426Z,100427.44
2022-10-21T06:38:07.701Z,100435.19
2022-10-21T06:40:35.920Z,100438.06
2022-10-21T06:43:04.219Z,100436.53
2022-10-21T06:45:33.805Z,100435.13
2022-10-21T06:48:02.688Z,100434.06
2022-10-21T06:50:30.986Z,100432.66
2022-10-21T06:52:59.255Z,100441.09
2022-10-21T06:55:27.628Z,100444.63
2022-10-21T06:57:55.907Z,100447.13
2022-10-21T07:00:24.257Z,100452.28
2022-10-21T07:02:53.903Z,100465.34
2022-10-21T07:05:22.155Z,100463.31
2022-10-21T07:07:50.450Z,100462.50
2022-10-21T07:10:18.849Z,100471.00
2022-10-21T07:12:47.622Z,100481.41
2022-10-21T07:15:16.104Z,100471.56
2022-10-21T07:17:44.352Z,100473.91
2022-10-21T07:20:14.020Z,100479.28
2022-10-21T07:22:42.271Z,100478.31
2022-10-21T07:25:10.698Z,100493.94
2022-10-21T07:27:39.857Z,100507.66
2022-10-21T07:30:11.092Z,100516.47
2022-10-21T07:32:39.396Z,100498.56
2022-10-21T07:35:08.963Z,100488.88
2022-10-21T07:37:38.667Z,100490.13
2022-10-21T07:40:09.282Z,100492.91
2022-10-21T07:42:37.657Z,100488.50
2022-10-21T07:45:06.901Z,100504.03
2022-10-21T07:47:35.167Z,100510.81
2022-10-21T07:50:03.359Z,100509.75
2022-10-21T07:52:33.775Z,100515.06
2022-10-21T07:55:07.787Z,100513.13
2022-10-21T07:57:36.059Z,100512.03
2022-10-21T08:00:05.824Z,100511.97
2022-10-21T08:02:42.029Z,100511.16
2022-10-21T08:05:10.844Z,100513.13
2022-10-21T08:07:39.316Z,100505.94
2022-10-21T08:10:09.979Z,100495.88
2022-10-21T08:12:38.223Z,100496.78
2022-10-21T08:15:08.136Z,100475.75
2022-10-21T08:17:36.488Z,100417.28
2022-10-21T08:20:05.199Z,100483.50
2022-10-21T08:22:33.555Z,100511.97
2022-10-21T08:25:01.780Z,100518.06
2022-10-21T08:27:31.349Z,100522.50
2022-10-21T08:29:59.598Z,100509.22
2022-10-21T08:32:27.843Z,100519.38
2022-10-21T08:34:56.087Z,100528.28
2022-10-21T08:37:25.691Z,100520.13
2022-10-21T08:39:54.184Z,100526.41
2022-10-21T08:42:22.859Z,100516.63
2022-10-21T08:45:00.906Z,100530.78
2022-10-21T08:47:45.023Z,100515.09
2022-10-21T08:50:16.776Z,100506.00
2022-10-21T08:52:49.199Z,100517.31
2022-10-21T08:55:22.236Z,100508.25
2022-10-21T08:57:53.511Z,100515.50
2022-10-21T09:00:26.102Z,100520.53
2022-10-21T09:03:08.685Z,100515.81
2022-10-21T09:06:27.646Z,100516.31
2022-10-21T09:09:06.445Z,100514.25
2022-10-21T09:11:56.209Z,100525.34
2022-10-21T09:14:57.243Z,100530.53
2022-10-21T09:18:01.669Z,100527.91
2022-10-21T09:20:46.374Z,100523.91
2022-10-21T09:23:41.899Z,100519.88
2022-10-21T09:26:26.631Z,100526.34
2022-10-21T09:28:58.377Z,100522.50
2022-10-21T09:31:26.594Z,100538.31
2022-10-21T09:34:03.750Z,100523.13
2022-10-21T09:36:37.837Z,100530.84
2022-10-21T09:39:11.671Z,100524.66
2022-10-21T09:41:44.531Z,100533.47
2022-10-21T09:44:23.764Z,100545.41
2022-10-21T09:46:54.228Z,100529.13
2022-10-21T09:50:01.646Z,100535.03
2022-10-21T09:52:21.960Z,100536.09
2022-10-21T09:54:50.877Z,100545.31
2022-10-21T09:57:26.727Z,100536.06
2022-10-21T09:59:57.343Z,100545.34
2022-10-21T10:02:29.196Z,100545.28
2022-10-21T10:04:59.421Z,100557.34
2022-10-21T10:07:36.256Z,100506.22
2022-10-21T10:10:10.160Z,100542.19
2022-10-21T10:12:38.559Z,100545.88
2022-10-21T10:15:31.561Z,100546.66
2022-10-21T10:18:01.089Z,100544.38
2022-10-21T10:20:31.389Z,100530.66
2022-10-21T10:23:19.384Z,100539.72
2022-10-21T10:25:52.965Z,100550.34
2022-10-21T10:28:26.025Z,100551.19
2022-10-21T10:30:57.741Z,100538.44
2022-10-21T10:33:29.605Z,100551.25
2022-10-21T10:36:03.340Z,100542.09
2022-10-21T10:38:36.796Z,100537.25
2022-10-21T10:41:08.615Z,100558.31
2022-10-21T10:43:44.990Z,100559.75
2022-10-21T10:46:24.946Z,100564.09
2022-10-21T10:48:54.675Z,100556.84
2022-10-21T10:51:32.392Z,100557.72
2022-10-21T10:54:04.370Z,100548.56
2022-10-21T10:56:38.871Z,100560.34
2022-10-21T10:59:16.129Z,100557.13
2022-10-21T11:01:58.618Z,100568.47
2022-10-21T11:04:37.599Z,100568.84
2022-10-21T11:07:15.885Z,100576.47
2022-10-21T11:09:44.178Z,100567.94
2022-10-21T11:12:20.714Z,100558.91
2022-10-21T11:14:53.365Z,100555.31
2022-10-21T11:17:26.493Z,100555.31
2022-10-21T11:20:01.006Z,100558.47
2022-10-21T11:22:43.011Z,100550.41
2022-10-21T11:25:21.306Z,100561.28
2022-10-21T11:28:16.634Z,100548.31
2022-10-21T11:31:08.321Z,100567.88
2022-10-21T11:33:48.742Z,100559.25
2022-10-21T11:36:28.313Z,100545.16
2022-10-21T11:39:32.961Z,100550.38
2022-10-21T11:42:13.292Z,100555.19
2022-10-21T11:45:00.108Z,100555.72
2022-10-21T11:47:41.845Z,100551.38
2022-10-21T11:50:22.110Z,100553.88
2022-10-21T11:53:12.964Z,100542.50
2022-10-21T11:55:48.984Z,100548.03
2022-10-21T11:58:37.140Z,100551.31
2022-10-21T12:01:28.289Z,100543.31
2022-10-21T12:04:20.312Z,100552.72
2022-10-21T12:07:03.752Z,100469.13
2022-10-21T12:09:41.293Z,100559.13
2022-10-21T12:12:15.386Z,100541.84
2022-10-21T12:14:48.595Z,100548.16
2022-10-21T12:17:21.065Z,100534.34
2022-10-21T12:19:56.963Z,100551.47
2022-10-21T12:22:28.596Z,100552.91
2022-10-21T12:25:08.740Z,100554.09
2022-10-21T12:27:45.699Z,100532.63
2022-10-21T12:30:23.435Z,100561.47
2022-10-21T12:33:15.685Z,100561.66
2022-10-21T12:35:50.576Z,100551.97
2022-10-21T12:38:27.046Z,100553.69
2022-10-21T12:41:31.832Z,100558.22
2022-10-21T12:44:22.130Z,100548.81
2022-10-21T12:46:53.556Z,100547.00
2022-10-21T12:49:27.575Z,100545.44
2022-10-21T12:52:07.502Z,100546.72
2022-10-21T12:54:50.668Z,100554.03
2022-10-21T12:57:27.856Z,100555.84
2022-10-21T13:00:53.936Z,100558.13
2022-10-21T13:03:23.965Z,100554.63
2022-10-21T13:06:06.063Z,100557.13
2022-10-21T13:08:54.105Z,100551.88
2022-10-21T13:11:25.765Z,100554.97
2022-10-21T13:14:35.241Z,100548.06
2022-10-21T13:17:31.787Z,100545.94
2022-10-21T13:20:46.633Z,100550.91
2022-10-21T13:23:39.346Z,100546.66
2022-10-21T13:26:21.488Z,100552.13
2022-10-21T13:29:20.430Z,100550.75
2022-10-21T13:31:48.865Z,100558.47
2022-10-21T13:34:30.094Z,100532.66
2022-10-21T13:36:59.290Z,100553.38
2022-10-21T13:39:32.063Z,100554.34
2022-10-21T13:42:04.550Z,100548.56
2022-10-21T13:44:36.924Z,100551.34
2022-10-21T13:47:28.098Z,100547.59
2022-10-21T13:50:06.026Z,100564.25
2022-10-21T13:52:34.241Z,100551.53
2022-10-21T13:55:05.770Z,100555.97
2022-10-21T13:57:37.569Z,100556.16
2022-10-21T14:00:17.176Z,100558.00
2022-10-21T14:02:48.567Z,100569.41
2022-10-21T14:05:38.195Z,100563.38
2022-10-21T14:08:18.426Z,100560.03
2022-10-21T14:10:48.162Z,100561.56
2022-10-21T14:13:25.274Z,100562.44
2022-10-21T14:15:54.219Z,100549.59
2022-10-21T14:18:36.425Z,100550.97
2022-10-21T14:21:09.399Z,100553.00
2022-10-21T14:23:37.768Z,100557.22
2022-10-21T14:26:09.902Z,100567.38
2022-10-21T14:28:39.203Z,100556.88
2022-10-21T14:31:11.605Z,100556.78
2022-10-21T14:33:43.380Z,100558.94
2022-10-21T14:36:19.665Z,100554.22
2022-10-21T14:39:00.545Z,100527.47
2022-10-21T14:41:33.704Z,100558.84
2022-10-21T14:44:09.338Z,100556.72
2022-10-21T14:46:46.801Z,100552.78
2022-10-21T14:49:24.230Z,100549.41
2022-10-21T14:52:00.698Z,100552.38
2022-10-21T14:54:38.199Z,100553.34
2022-10-21T14:57:06.549Z,100559.84
2022-10-21T14:59:40.599Z,100550.13
2022-10-21T15:02:21.991Z,100558.19
2022-10-21T15:04:52.741Z,100551.06
2022-10-21T15:07:30.631Z,100553.56
2022-10-21T15:10:20.869Z,100555.16
2022-10-21T15:12:52.674Z,100557.31
2022-10-21T15:15:53.463Z,100555.47
2022-10-21T15:18:24.864Z,100561.75
2022-10-21T15:20:57.266Z,100573.56
2022-10-21T15:23:31.272Z,100541.41
2022-10-21T15:26:03.719Z,100553.13
2022-10-21T15:28:34.435Z,100548.03
2022-10-21T15:31:03.521Z,100544.56
2022-10-21T15:33:32.018Z,100542.91
2022-10-21T15:36:06.161Z,100541.69
2022-10-21T15:38:36.007Z,100553.88
2022-10-21T15:41:04.536Z,100545.78
2022-10-21T15:43:32.850Z,100548.97
2022-10-21T15:46:01.082Z,100542.03
2022-10-21T15:48:29.303Z,100552.50
2022-10-21T15:50:57.973Z,100552.59
2022-10-21T15:53:26.603Z,100550.00
2022-10-21T15:55:56.296Z,100548.72
2022-10-21T15:58:24.509Z,100548.25
2022-10-21T16:00:53.431Z,100549.69
2022-10-21T16:03:22.845Z,100545.72
2022-10-21T16:05:51.496Z,100550.78
2022-10-21T16:08:19.734Z,100558.06
2022-10-21T16:10:49.947Z,100553.97
2022-10-21T16:13:19.581Z,100549.50
2022-10-21T16:15:47.848Z,100546.16
2022-10-21T16:18:16.926Z,100551.53
2022-10-21T16:20:45.178Z,100548.31
2022-10-21T16:23:13.458Z,100543.78
2022-10-21T16:25:41.690Z,100540.16
2022-10-21T16:28:12.533Z,100545.75
2022-10-21T16:30:42.740Z,100542.59
2022-10-21T16:33:11.367Z,100548.41
2022-10-21T16:35:39.625Z,100538.44
2022-10-21T16:38:08.099Z,100544.38
2022-10-21T16:40:36.956Z,100542.56
2022-10-21T16:43:05.491Z,100426.28
2022-10-21T16:45:34.232Z,100538.28
2022-10-21T16:48:06.406Z,100539.00
2022-10-21T16:50:40.472Z,100527.03
2022-10-21T16:53:14.119Z,100556.13
2022-10-21T16:55:42.555Z,100543.38
2022-10-21T16:58:10.774Z,100546.97
2022-10-21T17:00:39.114Z,100555.31
2022-10-21T17:03:11.725Z,100562.56
2022-10-21T17:05:39.983Z,100548.06
2022-10-21T17:08:08.196Z,100559.88
2022-10-21T17:10:36.447Z,100554.66
2022-10-21T17:13:05.172Z,100555.03
2022-10-21T17:15:33.545Z,100555.03
2022-10-21T17:18:01.851Z,100564.25
2022-10-21T17:20:32.986Z,100560.03
2022-10-21T17:23:01.934Z,100561.53
2022-10-21T17:25:31.316Z,100553.84
2022-10-21T17:27:59.816Z,100564.41
2022-10-21T17:30:28.058Z,100563.91
2022-10-21T17:32:56.302Z,100577.97
2022-10-21T17:35:24.932Z,100567.38
2022-10-21T17:37:54.834Z,100581.19
2022-10-21T17:40:26.474Z,100564.38
2022-10-21T17:42:54.857Z,100578.94
2022-10-21T17:45:23.715Z,100581.81
2022-10-21T17:47:53.325Z,100488.72
2022-10-21T17:50:24.325Z,100567.31
2022-10-21T17:52:55.209Z,100595.97
2022-10-21T17:55:23.645Z,100598.69
2022-10-21T17:57:51.926Z,100600.25
2022-10-21T18:00:20.533Z,100596.16
2022-10-21T18:02:48.750Z,100606.38
2022-10-21T18:05:17.039Z,100611.00
2022-10-21T18:07:45.645Z,100610.03
2022-10-21T18:10:15.355Z,100572.22
2022-10-21T18:12:43.657Z,100610.31
2022-10-21T18:15:12.556Z,100615.66
2022-10-21T18:17:41.401Z,100616.72
2022-10-21T18:20:11.277Z,100625.66
2022-10-21T18:22:39.875Z,100618.25
2022-10-21T18:25:09.473Z,100620.72
2022-10-21T18:27:40.195Z,100621.72
2022-10-21T18:30:10.503Z,100626.22
2022-10-21T18:32:39.098Z,100629.13
2022-10-21T18:35:09.494Z,100630.94
2022-10-21T18:37:38.153Z,100630.94
2022-10-21T18:40:08.796Z,100638.84
2022-10-21T18:42:38.584Z,100619.81
2022-10-21T18:45:08.516Z,100636.16
2022-10-21T18:47:37.071Z,100635.53
2022-10-21T18:50:08.455Z,100627.31
2022-10-21T18:52:36.666Z,100627.22
2022-10-21T18:57:34.740Z,100636.44
2022-10-21T19:00:05.768Z,100632.69
2022-10-21T19:02:34.138Z,100637.41
2022-10-21T19:05:02.729Z,100633.63
2022-10-21T19:07:31.354Z,100638.13
2022-10-21T19:09:59.590Z,100632.84
2022-10-21T19:12:27.797Z,100637.16
2022-10-21T19:14:57.071Z,100622.50
2022-10-21T19:17:27.570Z,100639.94
2022-10-21T19:19:56.081Z,100627.22
2022-10-21T19:22:26.060Z,100628.91
2022-10-21T19:24:54.569Z,100631.69
2022-10-21T19:27:22.990Z,100634.34
2022-10-21T19:29:51.555Z,100638.72
2022-10-21T19:32:19.917Z,100637.13
2022-10-21T19:34:49.538Z,100635.25
2022-10-21T19:37:17.845Z,100637.94
2022-10-21T19:39:46.207Z,100635.38
2022-10-21T19:42:14.439Z,100638.22
2022-10-21T19:44:42.734Z,100641.69
2022-10-21T19:47:11.261Z,100638.28
2022-10-21T19:49:39.684Z,100645.31
2022-10-21T19:52:09.268Z,100641.28
2022-10-21T19:54:37.607Z,100643.06
2022-10-21T19:57:05.861Z,100644.59
2022-10-21T19:59:34.251Z,100643.06
2022-10-21T20:02:02.507Z,100644.13
2022-10-21T20:04:33.775Z,100643.59
2022-10-21T20:07:03.768Z,100645.19
2022-10-21T20:09:35.114Z,100639.09
2022-10-21T20:12:06.339Z,100638.69
2022-10-21T20:14:34.597Z,100643.50
2022-10-21T20:17:02.871Z,100645.38
2022-10-21T20:19:31.081Z,100635.28
2022-10-21T20:21:59.368Z,100639.03
2022-10-21T20:24:27.728Z,100631.81
2022-10-21T20:26:59.841Z,100638.13
2022-10-21T20:29:30.519Z,100640.66
2022-10-21T20:31:58.729Z,100639.50
2022-10-21T20:34:27.302Z,100644.88
2022-10-21T20:36:55.517Z,100642.81
2022-10-21T20:39:23.723Z,100640.13
2022-10-21T20:41:51.917Z,100641.69
2022-10-21T20:44:21.585Z,100645.50
2022-10-21T20:46:49.867Z,100645.50
2022-10-21T20:49:18.118Z,100645.50
2022-10-21T20:51:46.415Z,100649.91
2022-10-21T20:54:17.621Z,100650.69
2022-10-21T20:56:46.459Z,100638.41
2022-10-21T20:59:17.112Z,100651.53
2022-10-21T21:01:48.733Z,100652.66
2022-10-21T21:04:20.595Z,100649.41
2022-10-21T21:06:50.726Z,100655.50
2022-10-21T21:12:09.098Z,100651.53
2022-10-21T21:14:37.629Z,100663.88
2022-10-21T21:17:07.722Z,100661.91
2022-10-21T21:19:36.066Z,100667.22
2022-10-21T21:22:04.997Z,100663.59
2022-10-21T21:24:33.569Z,100667.13
2022-10-21T21:27:01.940Z,100668.09
2022-10-21T21:29:30.174Z,100672.72
2022-10-21T21:31:58.460Z,100672.84
2022-10-21T21:34:28.201Z,100671.94
2022-10-21T21:36:56.448Z,100679.25
2022-10-21T21:39:24.838Z,100672.97
2022-10-21T21:41:53.223Z,100674.72
2022-10-21T21:44:21.434Z,100666.91
2022-10-21T21:46:49.731Z,100668.63
2022-10-21T21:49:17.928Z,100666.13
2022-10-21T21:51:47.542Z,100659.22
2022-10-21T21:54:15.914Z,100678.72
2022-10-21T21:56:44.184Z,100676.34
2022-10-21T21:59:12.566Z,100672.59
2022-10-21T22:01:40.818Z,100679.72
2022-10-21T22:04:09.090Z,100672.75
2022-10-21T22:06:38.870Z,100685.16
2022-10-21T22:09:11.754Z,100682.50
2022-10-21T22:11:40.550Z,100676.88
2022-10-21T22:14:08.791Z,100689.09
2022-10-21T22:16:37.558Z,100679.44
2022-10-21T22:19:05.962Z,100674.00
2022-10-21T22:21:34.313Z,100678.22
2022-10-21T22:24:02.543Z,100672.59
2022-10-21T22:26:32.201Z,100675.53
2022-10-21T22:29:00.556Z,100677.22
2022-10-21T22:31:30.539Z,100676.25
2022-10-21T22:34:01.121Z,100675.75
2022-10-21T22:36:29.654Z,100656.81
2022-10-21T22:38:57.900Z,100678.25
2022-10-21T22:41:26.360Z,100681.09
2022-10-21T22:43:56.029Z,100688.47
2022-10-21T22:46:39.673Z,100672.69
2022-10-21T22:49:10.401Z,100674.94
2022-10-21T22:51:38.507Z,100661.69
2022-10-21T22:54:15.010Z,100667.97
2022-10-21T22:56:47.691Z,100679.47
2022-10-21T22:59:17.234Z,100675.09
2022-10-21T23:01:45.465Z,100671.09
2022-10-21T23:04:13.729Z,100666.38
2022-10-21T23:06:42.105Z,100658.78
2022-10-21T23:09:10.390Z,100661.75
2022-10-21T23:11:38.813Z,100647.66
2022-10-21T23:14:08.669Z,100648.34
2022-10-21T23:16:39.710Z,100649.66
2022-10-21T23:19:08.776Z,100651.72
2022-10-21T23:21:38.142Z,100627.91
2022-10-21T23:24:07.292Z,100647.28
2022-10-21T23:26:36.595Z,100642.84
2022-10-21T23:29:05.521Z,100644.69
2022-10-21T23:31:33.785Z,100640.31
2022-10-21T23:34:05.817Z,100645.66
2022-10-21T23:36:35.527Z,100640.31
2022-10-21T23:39:04.396Z,100637.69
2022-10-21T23:41:32.630Z,100636.09
2022-10-21T23:44:00.846Z,100631.72
2022-10-21T23:46:29.105Z,100634.44
2022-10-21T23:48:57.381Z,100637.88
2022-10-21T23:51:26.984Z,100629.88
2022-10-21T23:53:55.226Z,100633.38
2022-10-21T23:56:23.477Z,100637.69
2022-10-21T23:58:51.744Z,100626.38
